Time;durP1;ratioP1;P1;durP2;ratioP2;P2;SDS_P1;SDS_P2;PMS_P1;PMS_P2;Temp;Humidity;BMP_temperature;BMP_pressure;BME280_temperature;BME280_humidity;BME280_pressure;Samples;Min_cycle;Max_cycle;Signal;HPM_P1;HPM_P2
2021/12/08 00:00:20;;;;;;;0.75;0.75;;;2.50;99.90;;;;;;4973362;28;20042;-91
2021/12/08 00:02:46;;;;;;;1.98;1.52;;;2.40;99.90;;;;;;4977024;28;20317;-90
2021/12/08 00:05:14;;;;;;;1.33;1.25;;;2.50;99.90;;;;;;4951952;28;20039;-91
2021/12/08 00:07:40;;;;;;;1.05;1.00;;;;;;;;;;4954032;29;20047;-87
2021/12/08 00:13:06;;;;;;;0.80;0.80;;;2.50;99.90;;;;;;4972646;28;20039;-90
2021/12/08 00:15:39;;;;;;;2.35;1.23;;;2.50;99.90;;;;;;4958695;28;20188;-89
2021/12/08 00:18:09;;;;;;;0.80;0.80;;;2.40;99.90;;;;;;4958349;28;20155;-90
2021/12/08 00:20:36;;;;;;;0.80;0.80;;;2.80;99.90;;;;;;4955938;28;20043;-91
2021/12/08 00:23:07;;;;;;;0.80;0.80;;;2.40;99.90;;;;;;4958979;28;20055;-90
2021/12/08 00:25:33;;;;;;;1.10;1.00;;;2.60;99.90;;;;;;4966682;28;20039;-90
2021/12/08 00:28:00;;;;;;;0.80;0.80;;;2.40;99.90;;;;;;4953584;29;20073;-91
2021/12/08 00:30:27;;;;;;;0.70;0.70;;;2.50;99.90;;;;;;4954417;28;20054;-90
2021/12/08 00:32:55;;;;;;;0.85;0.85;;;2.50;99.90;;;;;;4961923;28;20118;-90
2021/12/08 00:35:23;;;;;;;0.80;0.80;;;2.40;99.90;;;;;;4965361;28;20137;-90
2021/12/08 00:37:49;;;;;;;1.42;1.33;;;2.40;99.90;;;;;;4951972;28;20051;-90
2021/12/08 00:40:26;;;;;;;0.80;0.80;;;2.40;99.90;;;;;;4952873;28;20043;-91
2021/12/08 00:42:53;;;;;;;0.80;0.80;;;2.40;99.90;;;;;;4966362;28;20468;-91
2021/12/08 00:45:21;;;;;;;0.80;0.80;;;2.80;99.90;;;;;;4959796;28;20047;-90
2021/12/08 00:47:47;;;;;;;0.90;0.90;;;2.50;99.90;;;;;;4955918;28;20043;-89
2021/12/08 00:50:16;;;;;;;0.75;0.75;;;2.50;99.90;;;;;;4963466;28;20133;-91
2021/12/08 00:52:42;;;;;;;0.80;0.80;;;2.50;99.90;;;;;;4966413;28;20061;-89
2021/12/08 00:55:11;;;;;;;1.40;1.30;;;2.50;99.90;;;;;;4955366;28;20051;-89
2021/12/08 00:57:37;;;;;;;1.55;1.45;;;2.50;99.90;;;;;;4963178;28;20045;-89
2021/12/08 01:00:06;;;;;;;0.82;0.82;;;2.50;99.90;;;;;;4977093;28;20046;-89
2021/12/08 01:02:32;;;;;;;0.80;0.80;;;2.50;99.90;;;;;;4954299;29;20062;-90
2021/12/08 01:04:59;;;;;;;0.80;0.80;;;2.80;99.90;;;;;;4956926;29;20047;-91
2021/12/08 01:07:25;;;;;;;0.80;0.80;;;2.50;99.90;;;;;;4969445;28;20566;-92
2021/12/08 01:09:50;;;;;;;1.05;1.05;;;2.50;99.90;;;;;;4963289;29;20154;-90
2021/12/08 01:12:16;;;;;;;1.35;1.13;;;2.60;99.90;;;;;;4962795;28;20135;-91
2021/12/08 01:14:41;;;;;;;0.80;0.80;;;2.50;99.90;;;;;;4961806;28;20043;-90
2021/12/08 01:17:09;;;;;;;0.90;0.90;;;2.90;99.90;;;;;;4959777;28;20039;-91
2021/12/08 01:19:35;;;;;;;0.90;0.90;;;2.60;99.90;;;;;;4962725;28;20042;-91
2021/12/08 01:22:01;;;;;;;0.90;0.90;;;2.60;99.90;;;;;;4961798;28;20101;-91
2021/12/08 01:24:26;;;;;;;1.23;1.20;;;3.00;99.90;;;;;;4969333;28;20169;-90
2021/12/08 01:26:54;;;;;;;1.30;1.20;;;2.60;99.90;;;;;;4966593;28;20046;-89
2021/12/08 01:29:20;;;;;;;10.75;2.35;;;;;;;;;;4980886;28;20128;-90
2021/12/08 01:31:46;;;;;;;0.80;0.80;;;2.60;99.90;;;;;;4956853;28;20403;-90
2021/12/08 01:34:13;;;;;;;0.73;0.73;;;2.80;99.90;;;;;;4956811;28;20070;-91
2021/12/08 01:36:40;;;;;;;0.80;0.80;;;3.00;99.90;;;;;;4966498;28;20043;-91
2021/12/08 01:39:07;;;;;;;0.80;0.80;;;2.80;99.90;;;;;;4961640;28;20054;-91
2021/12/08 01:41:33;;;;;;;0.90;0.90;;;2.80;99.90;;;;;;4960399;28;20094;-91
2021/12/08 01:46:44;;;;;;;0.75;0.75;;;2.80;99.90;;;;;;4979901;28;20058;-91
2021/12/08 01:49:10;;;;;;;0.80;0.80;;;2.80;99.90;;;;;;4966764;28;20051;-91
2021/12/08 01:51:37;;;;;;;1.00;0.93;;;2.80;99.90;;;;;;4962172;28;20078;-91
2021/12/08 01:54:05;;;;;;;0.82;0.82;;;2.80;99.90;;;;;;4955074;29;20449;-90
2021/12/08 01:56:31;;;;;;;2.92;2.42;;;2.80;99.90;;;;;;4963186;28;20066;-91
2021/12/08 01:58:57;;;;;;;0.85;0.85;;;2.90;99.90;;;;;;4965678;28;20039;-91
2021/12/08 02:01:28;;;;;;;0.80;0.80;;;2.80;99.90;;;;;;4955505;28;20039;-92
2021/12/08 02:03:55;;;;;;;0.70;0.70;;;2.80;99.90;;;;;;4956256;28;20407;-91
2021/12/08 02:06:22;;;;;;;0.77;0.77;;;3.10;99.90;;;;;;4952204;28;20729;-90
2021/12/08 02:08:51;;;;;;;0.98;0.98;;;2.80;99.90;;;;;;4959631;28;20050;-92
2021/12/08 02:11:19;;;;;;;0.80;0.80;;;2.90;99.90;;;;;;4956642;28;20043;-91
2021/12/08 02:13:45;;;;;;;0.70;0.70;;;2.80;99.90;;;;;;4981216;28;20050;-91
2021/12/08 02:16:14;;;;;;;1.60;1.48;;;2.80;99.90;;;;;;4970903;28;20081;-92
2021/12/08 02:18:43;;;;;;;0.80;0.80;;;2.90;99.90;;;;;;4960639;28;20046;-91
2021/12/08 02:21:29;;;;;;;1.23;1.13;;;2.80;99.90;;;;;;4956840;28;20043;-92
2021/12/08 02:23:57;;;;;;;0.80;0.80;;;2.80;99.90;;;;;;4964553;28;20046;-92
2021/12/08 02:26:24;;;;;;;0.75;0.75;;;2.80;99.90;;;;;;4966140;28;20640;-91
2021/12/08 02:28:50;;;;;;;1.92;1.13;;;2.80;99.90;;;;;;4965682;28;20055;-92
2021/12/08 02:31:21;;;;;;;0.93;0.93;;;2.80;99.90;;;;;;4957009;29;20045;-93
2021/12/08 02:47:44;;;;;;;0.70;0.70;;;2.90;99.90;;;;;;4964614;28;20115;-91
2021/12/08 02:50:11;;;;;;;0.85;0.85;;;2.90;99.90;;;;;;4956764;28;20050;-92
2021/12/08 02:52:38;;;;;;;0.70;0.70;;;3.10;99.90;;;;;;4962337;28;20094;-92
2021/12/08 02:55:07;;;;;;;0.90;0.90;;;2.80;99.90;;;;;;4949165;29;20370;-92
2021/12/08 02:57:33;;;;;;;0.82;0.82;;;2.80;99.90;;;;;;4961157;28;20098;-92
2021/12/08 02:59:59;;;;;;;0.82;0.82;;;2.90;99.90;;;;;;4965909;28;20070;-92
2021/12/08 03:02:25;;;;;;;0.80;0.80;;;2.90;99.90;;;;;;4959000;28;20039;-92
2021/12/08 03:04:51;;;;;;;1.10;1.10;;;;;;;;;;4965436;28;20066;-93
2021/12/08 03:07:17;;;;;;;1.05;1.05;;;2.90;99.90;;;;;;4966427;28;20070;-93
2021/12/08 03:09:44;;;;;;;0.95;0.95;;;3.00;99.90;;;;;;4967431;28;20062;-92
2021/12/08 03:12:10;;;;;;;49.10;2.65;;;2.90;99.90;;;;;;4955984;28;20043;-92
2021/12/08 03:14:35;;;;;;;0.93;0.93;;;2.90;99.90;;;;;;4967385;28;20383;-91
2021/12/08 03:17:07;;;;;;;0.70;0.70;;;3.50;99.90;;;;;;4951434;28;20047;-92
2021/12/08 03:19:33;;;;;;;0.77;0.77;;;2.90;99.90;;;;;;4964632;28;20160;-91
2021/12/08 03:21:59;;;;;;;0.80;0.80;;;3.00;99.90;;;;;;4965998;28;20456;-91
2021/12/08 03:24:30;;;;;;;0.80;0.80;;;2.90;99.90;;;;;;4964157;28;20067;-91
2021/12/08 03:27:09;;;;;;;0.80;0.80;;;3.00;99.90;;;;;;4956256;28;20038;-92
2021/12/08 03:29:55;;;;;;;0.80;0.80;;;3.20;99.90;;;;;;4962590;28;20480;-92
2021/12/08 03:32:32;;;;;;;0.70;0.70;;;3.00;99.90;;;;;;4962526;29;20130;-93
2021/12/08 03:34:58;;;;;;;1.00;1.00;;;3.00;99.90;;;;;;4964078;28;20050;-91
2021/12/08 03:37:34;;;;;;;1.00;1.00;;;3.00;99.90;;;;;;4962025;28;20043;-93
2021/12/08 03:40:04;;;;;;;1.10;1.00;;;3.10;99.90;;;;;;4963970;28;20444;-92
2021/12/08 03:42:33;;;;;;;0.88;0.88;;;3.10;99.90;;;;;;4959538;28;20039;-90
2021/12/08 03:45:01;;;;;;;0.80;0.80;;;3.10;99.90;;;;;;4963770;28;20109;-90
2021/12/08 03:47:29;;;;;;;0.70;0.70;;;3.10;99.90;;;;;;4965400;28;20118;-92
2021/12/08 03:49:58;;;;;;;1.00;1.00;;;3.20;99.90;;;;;;4968850;28;20042;-91
2021/12/08 03:52:25;;;;;;;0.98;0.98;;;3.10;99.90;;;;;;4968920;28;20173;-92
2021/12/08 03:54:52;;;;;;;1.02;1.02;;;3.20;99.90;;;;;;4963434;28;20143;-90
2021/12/08 03:57:18;;;;;;;0.70;0.70;;;3.20;99.90;;;;;;4968572;28;20053;-90
2021/12/08 03:59:43;;;;;;;0.98;0.98;;;3.20;99.90;;;;;;4968747;28;20047;-92
2021/12/08 04:02:10;;;;;;;0.77;0.77;;;3.20;99.90;;;;;;4967613;28;20047;-92
2021/12/08 04:04:46;;;;;;;0.80;0.80;;;3.20;99.90;;;;;;4955166;28;20039;-92
2021/12/08 04:07:14;;;;;;;0.80;0.80;;;;;;;;;;4968564;28;20050;-93
2021/12/08 04:09:42;;;;;;;0.93;0.93;;;3.20;99.90;;;;;;4968478;28;20074;-93
2021/12/08 04:12:15;;;;;;;0.70;0.70;;;3.20;99.90;;;;;;4967023;28;20066;-92
2021/12/08 04:15:02;;;;;;;0.70;0.70;;;3.20;99.90;;;;;;4964654;29;20075;-92
2021/12/08 04:17:32;;;;;;;0.90;0.90;;;3.60;99.90;;;;;;4962886;28;20468;-92
2021/12/08 04:20:00;;;;;;;0.70;0.70;;;3.30;99.90;;;;;;4966114;28;20340;-92
2021/12/08 04:22:33;;;;;;;0.80;0.80;;;3.30;99.90;;;;;;4982839;28;20047;-93
2021/12/08 04:25:05;;;;;;;0.80;0.80;;;3.30;99.90;;;;;;4959230;29;20047;-90
2021/12/08 04:27:35;;;;;;;0.70;0.70;;;3.30;99.90;;;;;;4963892;28;20062;-93
2021/12/08 04:30:02;;;;;;;1.10;1.10;;;3.30;99.90;;;;;;4959410;28;20043;-93
2021/12/08 04:32:29;;;;;;;1.58;1.30;;;3.30;99.90;;;;;;4955505;29;20054;-92
2021/12/08 04:34:59;;;;;;;0.85;0.85;;;3.30;99.90;;;;;;4957317;29;20054;-90
2021/12/08 04:37:31;;;;;;;0.80;0.80;;;3.40;99.90;;;;;;4957048;28;20039;-92
2021/12/08 04:45:36;;;;;;;0.90;0.90;;;3.40;99.90;;;;;;4975435;28;20070;-91
2021/12/08 05:07:17;;;;;;;0.75;0.75;;;3.60;99.90;;;;;;4972176;28;20043;-93
2021/12/08 05:09:45;;;;;;;0.80;0.80;;;3.50;99.90;;;;;;4965295;28;20151;-93
2021/12/08 05:12:22;;;;;;;0.80;0.80;;;3.50;99.90;;;;;;4957436;28;20108;-93
2021/12/08 05:15:15;;;;;;;0.68;0.68;;;3.60;99.90;;;;;;4966340;28;20100;-92
2021/12/08 05:17:52;;;;;;;0.80;0.80;;;3.60;99.90;;;;;;4948184;29;20043;-91
2021/12/08 05:20:27;;;;;;;0.82;0.82;;;3.90;99.90;;;;;;4950339;29;20047;-92
2021/12/08 05:22:57;;;;;;;0.80;0.80;;;3.60;99.90;;;;;;4957315;29;20054;-92
2021/12/08 05:25:27;;;;;;;0.80;0.80;;;3.80;99.90;;;;;;4964559;28;20103;-94
2021/12/08 05:27:56;;;;;;;1.02;1.02;;;3.70;99.90;;;;;;4963760;28;20046;-94
2021/12/08 05:30:32;;;;;;;0.80;0.80;;;3.70;99.90;;;;;;4967176;28;20046;-92
2021/12/08 05:32:59;;;;;;;0.70;0.70;;;3.70;99.90;;;;;;4965977;28;20058;-93
2021/12/08 05:35:28;;;;;;;0.77;0.77;;;3.80;99.90;;;;;;4962970;29;20055;-92
2021/12/08 05:37:55;;;;;;;1.00;0.90;;;3.70;99.90;;;;;;4958396;28;20424;-92
2021/12/08 05:40:29;;;;;;;0.80;0.80;;;3.80;99.90;;;;;;4963129;28;20053;-93
2021/12/08 05:42:54;;;;;;;0.80;0.80;;;3.80;99.90;;;;;;4962235;28;20065;-89
2021/12/08 05:45:21;;;;;;;0.85;0.85;;;4.20;99.90;;;;;;4976966;28;20050;-93
2021/12/08 05:47:51;;;;;;;0.80;0.80;;;3.90;99.90;;;;;;4955290;28;20054;-92
2021/12/08 05:50:23;;;;;;;0.70;0.70;;;4.00;99.90;;;;;;4966973;28;20053;-93
2021/12/08 05:52:51;;;;;;;0.90;0.90;;;3.90;99.90;;;;;;4966095;28;20046;-91
2021/12/08 05:55:17;;;;;;;0.70;0.70;;;4.40;99.90;;;;;;4956181;28;20051;-93
2021/12/08 05:57:43;;;;;;;0.90;0.90;;;4.10;99.90;;;;;;4949704;28;20124;-92
2021/12/08 06:00:36;;;;;;;0.70;0.70;;;4.00;99.90;;;;;;4966340;28;20050;-93
2021/12/08 06:03:02;;;;;;;0.82;0.82;;;4.00;99.90;;;;;;4963229;28;20115;-93
2021/12/08 06:05:30;;;;;;;0.75;0.75;;;4.00;99.90;;;;;;4957901;28;20047;-93
2021/12/08 06:07:56;;;;;;;0.80;0.80;;;4.10;99.90;;;;;;4953867;28;20070;-92
2021/12/08 06:10:31;;;;;;;0.80;0.80;;;4.10;99.90;;;;;;4958421;29;20473;-92
2021/12/08 06:12:58;;;;;;;0.90;0.90;;;4.10;99.90;;;;;;4959132;28;20140;-92
2021/12/08 06:15:24;;;;;;;0.73;0.73;;;4.10;99.90;;;;;;4956523;28;20043;-91
2021/12/08 06:17:50;;;;;;;0.70;0.70;;;4.10;99.90;;;;;;4954481;28;20111;-93
2021/12/08 06:20:17;;;;;;;0.93;0.93;;;4.10;99.90;;;;;;4962107;28;20117;-93
2021/12/08 06:22:45;;;;;;;0.70;0.70;;;4.10;99.90;;;;;;4955862;28;20039;-92
2021/12/08 06:25:12;;;;;;;0.80;0.80;;;4.30;99.90;;;;;;4959721;28;20098;-92
2021/12/08 06:27:38;;;;;;;0.70;0.70;;;4.20;99.90;;;;;;4955124;28;20046;-93
2021/12/08 06:30:10;;;;;;;1.00;0.93;;;4.40;99.90;;;;;;4968573;28;20049;-92
2021/12/08 06:32:36;;;;;;;0.80;0.80;;;4.10;99.90;;;;;;4968500;28;20031;-94
2021/12/08 06:35:04;;;;;;;0.70;0.70;;;4.70;99.90;;;;;;4974371;28;20050;-93
2021/12/08 06:37:36;;;;;;;0.70;0.70;;;4.10;99.90;;;;;;4967570;28;20062;-92
2021/12/08 06:40:13;;;;;;;0.60;0.60;;;4.10;99.90;;;;;;4976234;28;20023;-94
2021/12/08 06:42:41;;;;;;;2.35;1.60;;;4.10;99.90;;;;;;4967372;28;20031;-92
2021/12/08 06:45:13;;;;;;;0.82;0.82;;;4.10;99.90;;;;;;4969358;28;20062;-92
2021/12/08 06:47:39;;;;;;;0.70;0.70;;;4.10;99.90;;;;;;4974172;28;20039;-92
2021/12/08 06:50:16;;;;;;;0.73;0.73;;;4.10;99.90;;;;;;4968108;28;20058;-92
2021/12/08 06:52:42;;;;;;;0.73;0.73;;;4.10;99.90;;;;;;4978497;28;20043;-92
2021/12/08 06:55:14;;;;;;;0.80;0.80;;;4.00;99.90;;;;;;4966366;28;20478;-91
2021/12/08 06:57:48;;;;;;;0.70;0.70;;;4.00;99.90;;;;;;4959638;28;20042;-94
2021/12/08 07:01:01;;;;;;;0.70;0.70;;;3.90;99.90;;;;;;4966850;28;20110;-92
2021/12/08 07:03:37;;;;;;;0.70;0.70;;;3.80;99.90;;;;;;4964165;28;20039;-92
2021/12/08 07:06:11;;;;;;;0.80;0.80;;;3.80;99.90;;;;;;4959730;28;20042;-93
2021/12/08 07:08:48;;;;;;;0.80;0.80;;;3.70;99.90;;;;;;4965689;28;20128;-92
2021/12/08 07:11:19;;;;;;;1.20;1.20;;;3.70;99.90;;;;;;4969985;28;20047;-92
2021/12/08 07:13:45;;;;;;;0.70;0.70;;;3.70;99.90;;;;;;4955524;28;20043;-90
2021/12/08 07:16:16;;;;;;;0.70;0.70;;;3.80;99.90;;;;;;4955920;28;20126;-90
2021/12/08 07:18:54;;;;;;;0.80;0.80;;;3.70;99.90;;;;;;4968176;28;20046;-90
2021/12/08 07:21:25;;;;;;;0.80;0.80;;;3.60;99.90;;;;;;4959014;28;20142;-86
2021/12/08 07:24:08;;;;;;;0.77;0.77;;;3.60;99.90;;;;;;4977378;28;20118;-86
2021/12/08 07:26:37;;;;;;;0.80;0.80;;;3.50;99.90;;;;;;4957629;28;20043;-86
2021/12/08 07:29:05;;;;;;;0.70;0.70;;;3.50;99.90;;;;;;4978931;28;20053;-85
2021/12/08 07:31:40;;;;;;;0.70;0.70;;;3.50;99.90;;;;;;4963816;28;20042;-86
2021/12/08 07:34:08;;;;;;;2.40;1.35;;;3.50;99.90;;;;;;4976892;28;20043;-86
2021/12/08 07:36:41;;;;;;;0.70;0.70;;;3.50;99.90;;;;;;4955884;28;20039;-87
2021/12/08 07:39:18;;;;;;;0.80;0.80;;;3.40;99.90;;;;;;4974187;28;20112;-86
2021/12/08 07:41:52;;;;;;;0.80;0.80;;;3.50;99.90;;;;;;4957400;28;20070;-87
2021/12/08 07:44:18;;;;;;;0.82;0.82;;;3.40;99.90;;;;;;4962378;28;20047;-86
2021/12/08 07:46:58;;;;;;;0.70;0.70;;;3.50;99.90;;;;;;4959902;28;20034;-87
2021/12/08 07:49:36;;;;;;;0.85;0.85;;;3.40;99.90;;;;;;4953735;28;20066;-87
2021/12/08 07:52:08;;;;;;;0.70;0.70;;;3.40;99.90;;;;;;4963285;28;20094;-90
2021/12/08 07:54:35;;;;;;;0.80;0.80;;;3.40;99.90;;;;;;4959407;28;20066;-90
2021/12/08 07:57:07;;;;;;;0.80;0.80;;;3.40;99.90;;;;;;4953396;28;20499;-91
2021/12/08 07:59:36;;;;;;;0.80;0.80;;;3.50;99.90;;;;;;4952257;28;20098;-90
2021/12/08 08:02:07;;;;;;;0.82;0.82;;;3.40;99.90;;;;;;4957732;28;20089;-89
2021/12/08 08:04:39;;;;;;;0.80;0.80;;;3.40;99.90;;;;;;4980936;28;20034;-90
2021/12/08 08:07:06;;;;;;;0.90;0.90;;;3.40;99.90;;;;;;4958342;28;20042;-89
2021/12/08 08:09:39;;;;;;;0.77;0.77;;;3.40;99.90;;;;;;4971768;28;20042;-87
2021/12/08 08:12:10;;;;;;;0.73;0.73;;;3.40;99.90;;;;;;4966710;28;20110;-88
2021/12/08 08:14:40;;;;;;;0.70;0.70;;;3.40;99.90;;;;;;4960267;28;20035;-88
2021/12/08 08:17:10;;;;;;;0.80;0.80;;;3.40;99.90;;;;;;4962213;28;20047;-89
2021/12/08 08:19:42;;;;;;;21.70;1.80;;;3.50;99.90;;;;;;4958502;28;20034;-86
2021/12/08 08:22:11;;;;;;;0.75;0.75;;;3.40;99.90;;;;;;4958173;28;20098;-86
2021/12/08 08:24:37;;;;;;;0.80;0.80;;;3.50;99.90;;;;;;4978072;28;20121;-89
2021/12/08 08:27:06;;;;;;;0.70;0.70;;;3.40;99.90;;;;;;4965010;28;20286;-89
2021/12/08 08:29:34;;;;;;;0.73;0.73;;;3.50;99.90;;;;;;4964782;28;20479;-89
2021/12/08 08:32:20;;;;;;;1.10;1.02;;;3.50;99.90;;;;;;4961093;28;20047;-87
2021/12/08 08:34:49;;;;;;;0.70;0.70;;;3.50;99.90;;;;;;4978165;28;20050;-86
2021/12/08 08:37:16;;;;;;;0.70;0.70;;;3.60;99.90;;;;;;4962093;28;20055;-84
2021/12/08 08:39:48;;;;;;;0.70;0.70;;;3.70;99.90;;;;;;4965229;28;20039;-86
2021/12/08 08:42:20;;;;;;;0.70;0.70;;;3.70;99.90;;;;;;4967284;28;20115;-86
2021/12/08 08:44:58;;;;;;;0.70;0.70;;;3.70;99.90;;;;;;4962723;28;20085;-86
2021/12/08 08:47:37;;;;;;;0.80;0.80;;;3.70;99.90;;;;;;4959213;28;20041;-86
2021/12/08 08:50:06;;;;;;;0.70;0.70;;;3.80;99.90;;;;;;4955843;28;20292;-87
2021/12/08 08:52:38;;;;;;;2.22;0.80;;;3.80;99.90;;;;;;4964694;28;20104;-87
2021/12/08 08:55:10;;;;;;;0.70;0.70;;;3.80;99.90;;;;;;4954568;28;20051;-86
2021/12/08 08:57:38;;;;;;;0.88;0.88;;;3.80;99.90;;;;;;4954205;28;20043;-87
2021/12/08 09:00:11;;;;;;;0.98;0.98;;;3.90;99.90;;;;;;4966017;28;20130;-86
2021/12/08 09:02:39;;;;;;;0.70;0.70;;;3.90;99.90;;;;;;4954756;28;20043;-87
2021/12/08 09:05:12;;;;;;;0.80;0.80;;;4.00;99.90;;;;;;4978424;28;20054;-87
2021/12/08 09:07:41;;;;;;;1.43;1.33;;;4.10;99.90;;;;;;4971569;28;20039;-87
2021/12/08 09:10:30;;;;;;;0.80;0.80;;;4.10;99.90;;;;;;4959403;28;20317;-86
2021/12/08 09:13:11;;;;;;;0.70;0.70;;;4.10;99.90;;;;;;4967485;28;20078;-87
2021/12/08 09:15:44;;;;;;;0.70;0.70;;;4.20;99.90;;;;;;4955398;28;20050;-87
2021/12/08 09:18:18;;;;;;;0.73;0.73;;;4.20;99.90;;;;;;4959837;28;20057;-87
2021/12/08 09:21:08;;;;;;;1.05;1.05;;;4.20;99.90;;;;;;4959334;28;20865;-87
2021/12/08 09:23:52;;;;;;;3.47;1.10;;;4.20;99.90;;;;;;4964884;28;20169;-85
2021/12/08 09:26:20;;;;;;;0.80;0.80;;;4.20;99.90;;;;;;4956116;28;20071;-87
2021/12/08 09:28:52;;;;;;;1.48;1.38;;;4.30;99.90;;;;;;4965115;28;20047;-87
2021/12/08 09:31:23;;;;;;;0.70;0.70;;;4.20;99.90;;;;;;4968877;28;20054;-86
2021/12/08 09:33:58;;;;;;;1.45;1.35;;;4.30;99.90;;;;;;4950178;28;20066;-86
2021/12/08 09:36:35;;;;;;;0.65;0.65;;;4.30;99.90;;;;;;4979102;28;20051;-87
2021/12/08 09:39:11;;;;;;;0.80;0.80;;;4.30;99.90;;;;;;4959460;28;20031;-87
2021/12/08 09:41:48;;;;;;;0.70;0.70;;;4.30;99.90;;;;;;4967846;28;20079;-86
2021/12/08 09:44:21;;;;;;;1.00;0.90;;;4.30;99.90;;;;;;4964013;28;20070;-87
2021/12/08 09:46:48;;;;;;;0.70;0.70;;;4.30;99.90;;;;;;4973397;28;20086;-87
2021/12/08 09:49:16;;;;;;;0.70;0.70;;;4.40;99.90;;;;;;4950985;28;20090;-87
2021/12/08 09:51:43;;;;;;;1.00;0.90;;;4.40;99.90;;;;;;4975654;28;20045;-86
2021/12/08 09:54:08;;;;;;;0.70;0.70;;;4.40;99.90;;;;;;4978447;28;20178;-87
2021/12/08 09:56:34;;;;;;;0.70;0.70;;;4.40;99.90;;;;;;4964866;28;20034;-87
2021/12/08 09:59:04;;;;;;;0.70;0.70;;;4.40;99.90;;;;;;4960203;28;20062;-89
2021/12/08 10:01:30;;;;;;;0.70;0.70;;;4.40;99.90;;;;;;4968820;28;20121;-88
2021/12/08 10:03:56;;;;;;;0.80;0.80;;;4.40;99.90;;;;;;4962537;28;20101;-89
2021/12/08 10:06:24;;;;;;;2.15;2.00;;;4.50;99.90;;;;;;4951642;28;20369;-88
2021/12/08 10:08:51;;;;;;;0.70;0.70;;;4.50;99.90;;;;;;4951152;28;20035;-89
2021/12/08 10:11:18;;;;;;;0.93;0.93;;;4.60;99.90;;;;;;4959204;28;20079;-88
2021/12/08 10:13:45;;;;;;;0.73;0.73;;;4.70;99.90;;;;;;4961609;28;20113;-90
2021/12/08 10:16:13;;;;;;;0.90;0.88;;;4.70;99.90;;;;;;4959050;28;20050;-88
2021/12/08 10:18:39;;;;;;;1.02;0.88;;;4.80;99.90;;;;;;4954466;28;20042;-89
2021/12/08 10:21:05;;;;;;;0.70;0.70;;;4.80;99.90;;;;;;4965537;28;20043;-89
2021/12/08 10:23:34;;;;;;;0.60;0.60;;;4.80;99.90;;;;;;4970539;28;20043;-88
2021/12/08 10:26:17;;;;;;;2.30;2.15;;;4.90;99.90;;;;;;4964485;28;20043;-88
2021/12/08 10:28:47;;;;;;;0.70;0.70;;;5.00;99.90;;;;;;4962958;28;20491;-88
2021/12/08 10:31:28;;;;;;;0.80;0.80;;;5.00;99.90;;;;;;4961944;28;20076;-88
2021/12/08 10:34:05;;;;;;;0.75;0.75;;;5.00;99.90;;;;;;4962787;28;20058;-87
2021/12/08 10:36:46;;;;;;;0.90;0.90;;;5.00;99.90;;;;;;4961382;28;20061;-87
2021/12/08 10:39:34;;;;;;;0.70;0.70;;;5.00;99.90;;;;;;4958623;28;20049;-86
2021/12/08 10:42:07;;;;;;;0.80;0.80;;;5.10;99.90;;;;;;4963966;28;20147;-86
2021/12/08 10:44:56;;;;;;;0.80;0.80;;;5.10;99.90;;;;;;4953680;28;20043;-87
2021/12/08 10:47:26;;;;;;;1.20;1.10;;;5.10;99.90;;;;;;4955428;28;20053;-86
2021/12/08 10:55:23;;;;;;;0.82;0.82;;;5.20;99.90;;;;;;4973189;28;20351;-86
2021/12/08 10:57:53;;;;;;;0.80;0.80;;;5.20;99.90;;;;;;4960320;28;20066;-85
2021/12/08 11:00:30;;;;;;;0.70;0.70;;;5.30;99.90;;;;;;4979285;28;20043;-86
2021/12/08 11:02:55;;;;;;;0.70;0.70;;;5.20;99.90;;;;;;4965202;28;20050;-85
2021/12/08 11:05:24;;;;;;;0.70;0.70;;;5.30;99.90;;;;;;4983015;28;20038;-86
2021/12/08 11:08:08;;;;;;;0.80;0.80;;;5.20;99.90;;;;;;4980931;28;20039;-87
2021/12/08 11:10:57;;;;;;;0.70;0.70;;;5.20;99.90;;;;;;4961048;28;20133;-87
2021/12/08 11:13:29;;;;;;;0.80;0.80;;;5.20;99.90;;;;;;4979633;28;20047;-86
2021/12/08 11:16:41;;;;;;;0.70;0.70;;;5.30;99.90;;;;;;4955168;28;20058;-86
2021/12/08 11:19:18;;;;;;;0.70;0.70;;;5.40;99.90;;;;;;4949996;28;20154;-86
2021/12/08 11:21:53;;;;;;;0.70;0.70;;;5.40;99.90;;;;;;4965389;28;20043;-89
2021/12/08 11:24:31;;;;;;;0.90;0.90;;;5.40;99.90;;;;;;4964549;28;20587;-89
2021/12/08 11:26:58;;;;;;;0.70;0.70;;;5.50;99.90;;;;;;4955740;28;20039;-88
2021/12/08 11:29:27;;;;;;;0.60;0.60;;;5.50;99.90;;;;;;4968138;28;20043;-89
2021/12/08 11:31:59;;;;;;;0.60;0.60;;;5.50;99.90;;;;;;4968951;28;20051;-87
2021/12/08 11:34:30;;;;;;;0.70;0.70;;;5.60;99.90;;;;;;4965296;28;20070;-88
2021/12/08 11:37:14;;;;;;;1.17;1.08;;;5.60;99.90;;;;;;4963337;28;20110;-88
2021/12/08 11:39:47;;;;;;;;;;;5.70;99.90;;;;;;4971722;28;20053;-88
2021/12/08 11:42:17;;;;;;;0.68;0.68;;;5.70;99.90;;;;;;4977915;28;20275;-87
2021/12/08 11:44:48;;;;;;;0.70;0.70;;;5.70;99.90;;;;;;4952753;28;20043;-86
2021/12/08 11:47:20;;;;;;;0.70;0.70;;;5.70;99.90;;;;;;4954335;28;20090;-87
2021/12/08 11:49:49;;;;;;;0.70;0.70;;;5.80;99.90;;;;;;4975985;28;20073;-86
2021/12/08 11:52:20;;;;;;;0.70;0.70;;;5.80;99.90;;;;;;4963416;28;20042;-86
2021/12/08 11:55:00;;;;;;;0.80;0.80;;;5.80;99.90;;;;;;4961811;28;20070;-88
2021/12/08 11:57:33;;;;;;;1.33;1.23;;;5.80;99.90;;;;;;4967223;28;20050;-87
2021/12/08 12:00:16;;;;;;;0.65;0.65;;;5.80;99.90;;;;;;4978996;28;20042;-88
2021/12/08 12:02:52;;;;;;;0.60;0.60;;;5.80;99.90;;;;;;4965384;28;20046;-88
2021/12/08 12:05:21;;;;;;;0.80;0.80;;;5.80;99.90;;;;;;4974598;28;20108;-89
2021/12/08 12:07:48;;;;;;;0.60;0.60;;;5.80;99.90;;;;;;4974011;28;20188;-88
2021/12/08 12:10:17;;;;;;;1.77;0.82;;;5.70;99.90;;;;;;4962821;28;20043;-89
2021/12/08 12:12:44;;;;;;;0.60;0.60;;;5.70;99.90;;;;;;4961731;28;20058;-87
2021/12/08 12:15:12;;;;;;;0.60;0.60;;;5.70;99.90;;;;;;4968056;28;20050;-86
2021/12/08 12:17:39;;;;;;;1.00;1.00;;;5.70;99.90;;;;;;4967001;28;20643;-87
2021/12/08 12:20:17;;;;;;;3.50;1.15;;;5.70;99.90;;;;;;4949649;28;20059;-88
2021/12/08 12:22:59;;;;;;;0.60;0.60;;;5.70;99.90;;;;;;4963136;28;20096;-86
2021/12/08 12:25:30;;;;;;;1.25;1.25;;;5.60;99.90;;;;;;4979040;28;20038;-87
2021/12/08 12:28:27;;;;;;;1.55;1.45;;;5.60;99.90;;;;;;4974410;28;20039;-84
2021/12/08 12:31:23;;;;;;;1.83;1.73;;;5.70;99.90;;;;;;4958968;28;20398;-86
2021/12/08 12:33:50;;;;;;;0.60;0.60;;;5.70;99.90;;;;;;4961141;28;20085;-89
2021/12/08 12:36:21;;;;;;;0.60;0.60;;;5.70;99.90;;;;;;4960411;28;20118;-88
2021/12/08 12:38:51;;;;;;;0.68;0.68;;;5.70;99.90;;;;;;4961701;28;20049;-87
2021/12/08 12:41:29;;;;;;;0.60;0.60;;;5.60;99.90;;;;;;4971791;28;20048;-88
2021/12/08 12:44:14;;;;;;;0.70;0.70;;;5.60;99.90;;;;;;4971968;28;20046;-88
2021/12/08 12:47:10;;;;;;;0.70;0.70;;;5.60;99.90;;;;;;4953125;29;20039;-89
2021/12/08 12:49:38;;;;;;;0.60;0.60;;;5.60;99.90;;;;;;4956700;28;20051;-89
2021/12/08 12:52:06;;;;;;;0.70;0.70;;;5.60;99.90;;;;;;4973152;28;20059;-88
2021/12/08 12:54:33;;;;;;;0.70;0.70;;;5.60;99.90;;;;;;4965297;28;20039;-87
2021/12/08 12:56:59;;;;;;;1.15;1.15;;;5.60;99.90;;;;;;4957929;29;20054;-87
2021/12/08 12:59:46;;;;;;;0.90;0.90;;;5.60;99.90;;;;;;4975082;28;20102;-88
2021/12/08 13:02:20;;;;;;;1.02;0.80;;;5.60;99.90;;;;;;4975120;28;20054;-88
2021/12/08 13:04:53;;;;;;;;;;;5.60;99.90;;;;;;4952747;28;20043;-87
2021/12/08 13:07:20;;;;;;;0.60;0.60;;;5.60;99.90;;;;;;4968478;28;19933;-89
2021/12/08 13:09:53;;;;;;;0.60;0.60;;;5.60;99.90;;;;;;4964716;28;20043;-86
2021/12/08 13:12:40;;;;;;;0.60;0.60;;;5.70;99.90;;;;;;4954832;28;20054;-87
2021/12/08 13:15:16;;;;;;;0.85;0.80;;;5.70;99.90;;;;;;4966736;28;20055;-87
2021/12/08 13:18:04;;;;;;;1.77;1.67;;;5.70;99.90;;;;;;4957670;28;20043;-86
2021/12/08 13:20:34;;;;;;;0.60;0.60;;;5.70;99.90;;;;;;4978116;28;20049;-85
2021/12/08 13:23:08;;;;;;;1.00;1.00;;;5.70;99.90;;;;;;4979920;28;20047;-87
2021/12/08 13:25:59;;;;;;;0.70;0.70;;;5.60;99.90;;;;;;4978600;28;20046;-86
2021/12/08 13:28:51;;;;;;;0.80;0.80;;;5.70;99.90;;;;;;4961046;28;20102;-88
2021/12/08 13:31:37;;;;;;;0.60;0.60;;;5.70;99.90;;;;;;4972942;28;20082;-89
2021/12/08 13:34:05;;;;;;;0.70;0.70;;;5.70;99.90;;;;;;4953984;28;20035;-88
2021/12/08 13:36:43;;;;;;;0.70;0.70;;;5.60;99.90;;;;;;4958355;28;20543;-87
2021/12/08 13:39:22;;;;;;;0.63;0.63;;;5.60;99.90;;;;;;4959648;28;20047;-86
2021/12/08 13:42:04;;;;;;;0.60;0.60;;;5.60;99.90;;;;;;4966719;28;20400;-86
2021/12/08 13:44:35;;;;;;;0.95;0.95;;;5.60;99.90;;;;;;4973329;28;20047;-87
2021/12/08 13:47:05;;;;;;;0.95;0.90;;;5.60;99.90;;;;;;4964704;28;20395;-88
2021/12/08 13:49:45;;;;;;;0.60;0.60;;;5.60;99.90;;;;;;4947809;28;20058;-89
2021/12/08 13:52:12;;;;;;;0.60;0.60;;;5.30;99.90;;;;;;4965473;28;20047;-89
2021/12/08 13:54:51;;;;;;;0.88;0.88;;;5.60;99.90;;;;;;4955714;28;20035;-89
2021/12/08 13:57:35;;;;;;;0.68;0.68;;;5.60;99.90;;;;;;4959378;28;20092;-92
2021/12/08 14:00:13;;;;;;;0.63;0.63;;;5.20;99.90;;;;;;4959689;28;20068;-89
2021/12/08 14:02:38;;;;;;;0.70;0.70;;;5.40;99.90;;;;;;4950932;28;20050;-88
2021/12/08 14:05:19;;;;;;;0.80;0.80;;;5.30;99.90;;;;;;4965619;28;20066;-89
2021/12/08 14:08:12;;;;;;;0.60;0.60;;;5.20;99.90;;;;;;4961533;28;20401;-89
2021/12/08 14:10:41;;;;;;;0.60;0.60;;;5.20;99.90;;;;;;4955494;28;20068;-89